createdAt,value
2022-12-08T00:01:22.126Z,10.48
2022-12-08T00:03:49.746Z,9.77
2022-12-08T00:06:43.121Z,9.40
2022-12-08T00:09:39.527Z,8.55
2022-12-08T00:12:12.289Z,8.60
2022-12-08T00:14:42.416Z,10.32
2022-12-08T00:17:11.724Z,9.02
2022-12-08T00:19:39.623Z,5.88
2022-12-08T00:22:07.847Z,12.57
2022-12-08T00:24:39.412Z,7.20
2022-12-08T00:27:08.184Z,6.90
2022-12-08T00:29:35.036Z,8.70
2022-12-08T00:32:02.108Z,9.75
2022-12-08T00:34:29.039Z,6.65
2022-12-08T00:36:55.903Z,8.10
2022-12-08T00:39:22.763Z,7.78
2022-12-08T00:42:08.215Z,7.97
2022-12-08T00:44:35.097Z,7.03
2022-12-08T00:47:01.844Z,6.10
2022-12-08T00:49:28.715Z,3.67
2022-12-08T00:51:56.097Z,4.65
2022-12-08T00:54:23.572Z,4.38
2022-12-08T00:56:50.782Z,4.30
2022-12-08T00:59:18.430Z,3.10
2022-12-08T01:01:46.987Z,3.08
2022-12-08T01:04:16.178Z,3.55
2022-12-08T01:06:44.162Z,3.10
2022-12-08T01:09:18.000Z,3.15
2022-12-08T01:11:45.428Z,5.13
2022-12-08T01:14:13.187Z,3.95
2022-12-08T01:16:41.827Z,5.35
2022-12-08T01:19:13.959Z,4.47
2022-12-08T01:21:41.886Z,5.40
2022-12-08T01:24:16.064Z,4.72
2022-12-08T01:26:43.488Z,4.97
2022-12-08T01:29:11.226Z,6.72
2022-12-08T01:31:38.872Z,6.75
2022-12-08T01:34:06.964Z,4.93
2022-12-08T01:36:37.210Z,8.30
2022-12-08T01:39:07.078Z,8.15
2022-12-08T01:41:36.443Z,10.20
2022-12-08T01:44:10.621Z,9.98
2022-12-08T01:46:45.935Z,8.32
2022-12-08T01:49:29.016Z,9.15
2022-12-08T01:52:16.436Z,10.80
2022-12-08T01:54:52.821Z,6.93
2022-12-08T01:57:33.746Z,10.15
2022-12-08T02:00:10.449Z,7.10
2022-12-08T02:03:04.791Z,9.43
2022-12-08T02:05:37.048Z,6.13
2022-12-08T02:08:10.148Z,10.25
2022-12-08T02:10:40.706Z,9.50
2022-12-08T02:13:12.619Z,5.68
2022-12-08T02:16:05.079Z,6.72
2022-12-08T02:19:29.800Z,5.60
2022-12-08T02:21:59.597Z,8.20
2022-12-08T02:24:38.885Z,5.35
2022-12-08T02:27:24.487Z,4.78
2022-12-08T02:29:54.047Z,4.85
2022-12-08T02:32:36.205Z,4.65
2022-12-08T02:35:14.503Z,3.95
2022-12-08T02:37:57.172Z,4.72
2022-12-08T02:40:39.719Z,4.05
2022-12-08T02:43:38.298Z,4.22
2022-12-08T02:46:10.654Z,3.95
2022-12-08T02:48:38.055Z,3.20
2022-12-08T02:51:05.527Z,3.30
2022-12-08T02:53:35.408Z,2.42
2022-12-08T02:56:26.473Z,1.88
2022-12-08T02:59:08.605Z,2.17
2022-12-08T03:01:44.440Z,4.65
2022-12-08T03:04:17.457Z,3.38
2022-12-08T03:07:19.758Z,3.65
2022-12-08T03:09:50.235Z,5.70
2022-12-08T03:12:37.051Z,4.05
2022-12-08T03:15:14.455Z,2.67
2022-12-08T03:17:46.022Z,2.90
2022-12-08T03:20:18.402Z,3.63
2022-12-08T03:22:47.965Z,5.68
2022-12-08T03:25:17.112Z,6.32
2022-12-08T03:27:44.566Z,5.28
2022-12-08T03:30:11.762Z,5.38
2022-12-08T03:33:05.011Z,7.85
2022-12-08T03:35:35.823Z,6.57
2022-12-08T03:38:12.466Z,5.20
2022-12-08T03:40:40.201Z,8.07
2022-12-08T03:43:07.650Z,6.78
2022-12-08T03:45:34.494Z,6.32
2022-12-08T03:48:01.330Z,6.75
2022-12-08T03:50:28.163Z,6.93
2022-12-08T03:52:54.892Z,6.28
2022-12-08T03:55:21.781Z,11.73
2022-12-08T03:57:48.608Z,5.80
2022-12-08T04:00:16.863Z,5.75
2022-12-08T04:02:43.813Z,4.95
2022-12-08T04:05:10.766Z,4.85
2022-12-08T04:07:37.707Z,4.70
2022-12-08T04:10:05.822Z,4.70
2022-12-08T04:12:33.035Z,5.43
2022-12-08T04:14:59.895Z,3.50
2022-12-08T04:17:26.665Z,3.65
2022-12-08T04:19:53.434Z,3.30
2022-12-08T04:22:20.198Z,4.82
2022-12-08T04:24:47.296Z,9.27
2022-12-08T04:27:14.242Z,2.97
2022-12-08T04:29:41.092Z,4.90
2022-12-08T04:32:07.886Z,3.17
2022-12-08T04:34:34.761Z,7.50
2022-12-08T04:37:01.620Z,4.47
2022-12-08T04:39:28.447Z,6.25
2022-12-08T04:42:01.493Z,3.80
2022-12-08T04:44:28.360Z,4.22
2022-12-08T04:46:55.471Z,3.97
2022-12-08T04:49:22.416Z,5.32
2022-12-08T04:51:49.246Z,2.53
2022-12-08T04:54:16.112Z,2.15
2022-12-08T04:56:43.137Z,1.88
2022-12-08T04:59:10.143Z,2.88
2022-12-08T05:01:37.081Z,1.45
2022-12-08T05:04:03.921Z,3.38
2022-12-08T05:06:31.083Z,2.50
2022-12-08T05:08:57.911Z,1.70
2022-12-08T05:11:24.913Z,1.23
2022-12-08T05:13:51.824Z,1.48
2022-12-08T05:16:18.722Z,3.00
2022-12-08T05:18:45.660Z,2.05
2022-12-08T05:21:12.820Z,1.63
2022-12-08T05:23:39.830Z,4.38
2022-12-08T05:26:06.949Z,4.25
2022-12-08T05:28:42.701Z,2.13
2022-12-08T05:31:14.574Z,2.20
2022-12-08T05:33:41.725Z,3.15
2022-12-08T05:36:10.024Z,3.47
2022-12-08T05:38:36.929Z,1.83
2022-12-08T05:41:05.530Z,4.25
2022-12-08T05:43:32.566Z,2.85
2022-12-08T05:45:59.567Z,3.03
2022-12-08T05:48:26.713Z,3.45
2022-12-08T05:50:53.748Z,3.83
2022-12-08T05:53:20.987Z,2.90
2022-12-08T05:55:48.147Z,3.10
2022-12-08T05:58:17.318Z,2.47
2022-12-08T06:00:45.244Z,2.03
2022-12-08T06:03:13.032Z,1.67
2022-12-08T06:05:41.410Z,2.50
2022-12-08T06:08:09.113Z,1.65
2022-12-08T06:10:37.415Z,4.57
2022-12-08T06:13:04.349Z,1.92
2022-12-08T06:15:31.201Z,4.55
2022-12-08T06:17:58.071Z,2.33
2022-12-08T06:20:24.920Z,4.28
2022-12-08T06:22:51.718Z,2.55
2022-12-08T06:25:18.605Z,2.17
2022-12-08T06:27:45.337Z,8.48
2022-12-08T06:30:12.595Z,2.13
2022-12-08T06:32:39.495Z,1.17
2022-12-08T06:35:06.886Z,2.00
2022-12-08T06:37:33.904Z,4.28
2022-12-08T06:40:00.686Z,1.13
2022-12-08T06:42:46.607Z,3.30
2022-12-08T06:45:15.790Z,2.20
2022-12-08T06:47:43.198Z,3.35
2022-12-08T06:50:11.686Z,15.02
2022-12-08T06:52:47.281Z,2.70
2022-12-08T06:55:42.731Z,1.00
2022-12-08T06:58:06.770Z,2.15
2022-12-08T07:00:33.573Z,4.53
2022-12-08T07:03:00.592Z,0.95
2022-12-08T07:05:27.508Z,1.77
2022-12-08T07:07:54.421Z,1.65
2022-12-08T07:10:21.432Z,1.45
2022-12-08T07:12:48.299Z,2.17
2022-12-08T07:15:15.275Z,2.03
2022-12-08T07:17:42.285Z,1.30
2022-12-08T07:20:09.295Z,1.35
2022-12-08T07:22:36.153Z,1.35
2022-12-08T07:25:03.053Z,1.17
2022-12-08T07:27:29.988Z,1.80
2022-12-08T07:29:56.868Z,2.22
2022-12-08T07:32:23.729Z,2.15
2022-12-08T07:34:50.565Z,2.25
2022-12-08T07:37:17.608Z,1.42
2022-12-08T07:39:44.579Z,2.35
2022-12-08T07:42:11.372Z,2.42
2022-12-08T07:44:38.163Z,2.17
2022-12-08T07:47:05.180Z,2.50
2022-12-08T07:49:32.029Z,2.30
2022-12-08T07:51:58.888Z,3.47
2022-12-08T07:54:25.754Z,2.97
2022-12-08T07:56:52.629Z,3.92
2022-12-08T07:59:19.732Z,2.55
2022-12-08T08:01:56.288Z,3.25
2022-12-08T08:04:34.477Z,2.65
2022-12-08T08:07:01.272Z,2.67
2022-12-08T08:09:28.133Z,2.75
2022-12-08T08:12:22.150Z,1.80
2022-12-08T08:14:42.047Z,2.28
2022-12-08T08:17:09.006Z,2.70
2022-12-08T08:19:35.999Z,2.50
2022-12-08T08:22:02.815Z,1.92
2022-12-08T08:24:29.584Z,3.50
2022-12-08T08:26:56.621Z,2.20
2022-12-08T08:29:23.609Z,2.60
2022-12-08T08:31:50.519Z,3.03
2022-12-08T08:34:17.447Z,2.88
2022-12-08T08:36:44.270Z,2.63
2022-12-08T08:39:11.136Z,4.40
2022-12-08T08:41:38.063Z,4.32
2022-12-08T08:44:05.236Z,3.92
2022-12-08T08:46:32.325Z,3.28
2022-12-08T08:48:59.183Z,4.00
2022-12-08T08:51:25.948Z,2.53
2022-12-08T08:53:52.766Z,2.60
2022-12-08T08:56:20.170Z,4.32
2022-12-08T08:58:49.473Z,3.65
2022-12-08T09:01:19.052Z,3.58
2022-12-08T09:03:46.036Z,3.00
2022-12-08T09:06:14.051Z,1.80
2022-12-08T09:08:42.312Z,1.70
2022-12-08T09:11:09.727Z,4.45
2022-12-08T09:13:36.608Z,2.15
2022-12-08T09:16:08.344Z,3.67
2022-12-08T09:18:35.569Z,1.85
2022-12-08T09:21:07.082Z,2.22
2022-12-08T09:23:35.728Z,3.53
2022-12-08T09:26:05.211Z,2.45
2022-12-08T09:28:33.035Z,2.10
2022-12-08T09:31:01.343Z,3.38
2022-12-08T09:33:28.325Z,3.92
2022-12-08T09:35:55.414Z,3.28
2022-12-08T09:38:22.345Z,2.95
2022-12-08T09:40:53.818Z,1.60
2022-12-08T09:43:48.860Z,2.17
2022-12-08T09:46:18.197Z,1.60
2022-12-08T09:48:55.705Z,1.35
2022-12-08T09:51:28.013Z,1.50
2022-12-08T09:54:08.014Z,1.77
2022-12-08T09:56:37.287Z,3.70
2022-12-08T09:59:16.962Z,4.32
2022-12-08T10:01:44.000Z,2.25
2022-12-08T10:04:36.202Z,1.63
2022-12-08T10:07:24.397Z,2.40
2022-12-08T10:10:18.560Z,1.70
2022-12-08T10:12:57.404Z,3.10
2022-12-08T10:15:56.683Z,2.42
2022-12-08T10:18:32.230Z,3.90
2022-12-08T10:21:11.550Z,5.07
2022-12-08T10:23:42.112Z,2.63
2022-12-08T10:26:18.170Z,2.60
2022-12-08T10:28:45.761Z,4.90
2022-12-08T10:31:22.246Z,3.97
2022-12-08T10:33:58.771Z,3.72
2022-12-08T10:36:58.151Z,3.85
2022-12-08T10:39:40.758Z,3.72
2022-12-08T10:42:15.566Z,2.72
2022-12-08T10:44:57.889Z,3.97
2022-12-08T10:47:27.321Z,3.65
2022-12-08T10:50:34.871Z,3.35
2022-12-08T10:53:10.825Z,1.98
2022-12-08T10:56:05.453Z,3.40
2022-12-08T10:58:36.714Z,2.80
2022-12-08T11:01:20.908Z,5.22
2022-12-08T11:03:55.058Z,5.72
2022-12-08T11:06:31.976Z,5.38
2022-12-08T11:09:26.725Z,8.27
2022-12-08T11:11:59.239Z,5.38
2022-12-08T11:14:32.610Z,5.28
2022-12-08T11:17:30.852Z,5.80
2022-12-08T11:20:01.428Z,4.07
2022-12-08T11:22:33.579Z,4.55
2022-12-08T11:25:25.922Z,4.80
2022-12-08T11:27:56.582Z,6.22
2022-12-08T11:30:27.966Z,6.72
2022-12-08T11:33:06.031Z,4.47
2022-12-08T11:35:59.145Z,3.92
2022-12-08T11:38:27.868Z,4.10
2022-12-08T11:41:16.826Z,5.97
2022-12-08T11:44:16.349Z,3.78
2022-12-08T11:46:50.833Z,4.90
2022-12-08T11:49:18.881Z,3.53
2022-12-08T11:51:54.631Z,3.60
2022-12-08T11:54:40.142Z,3.40
2022-12-08T11:57:20.780Z,5.60
2022-12-08T11:59:51.145Z,4.63
2022-12-08T12:02:22.596Z,5.55
2022-12-08T12:05:00.372Z,3.67
2022-12-08T12:07:46.095Z,5.18
2022-12-08T12:10:30.496Z,4.35
2022-12-08T12:13:23.554Z,5.53
2022-12-08T12:16:22.068Z,6.03
2022-12-08T12:19:01.494Z,5.40
2022-12-08T12:21:33.431Z,6.25
2022-12-08T12:24:08.364Z,4.50
2022-12-08T12:26:39.071Z,3.80
2022-12-08T12:29:36.790Z,5.10
2022-12-08T12:32:08.330Z,5.35
2022-12-08T12:34:56.944Z,4.30
2022-12-08T12:37:46.389Z,3.47
2022-12-08T12:40:18.989Z,4.95
2022-12-08T12:43:09.635Z,4.43
2022-12-08T12:45:43.402Z,3.53
2022-12-08T12:48:20.086Z,3.83
2022-12-08T12:50:51.016Z,3.65
2022-12-08T12:53:20.492Z,4.43
2022-12-08T12:55:59.112Z,3.00
2022-12-08T12:58:29.617Z,4.15
2022-12-08T13:01:08.573Z,3.50
2022-12-08T13:03:35.877Z,4.25
2022-12-08T13:06:03.694Z,3.17
2022-12-08T13:08:31.626Z,6.47
2022-12-08T13:11:05.415Z,3.03
2022-12-08T13:13:32.532Z,3.10
2022-12-08T13:16:18.770Z,4.82
2022-12-08T13:18:51.288Z,2.80
2022-12-08T13:21:23.508Z,2.80
2022-12-08T13:24:19.847Z,4.55
2022-12-08T13:26:47.739Z,3.13
2022-12-08T13:29:19.094Z,2.70
2022-12-08T13:31:53.494Z,4.80
2022-12-08T13:34:37.010Z,3.60
2022-12-08T13:37:15.628Z,4.38
2022-12-08T13:39:51.851Z,3.53
2022-12-08T13:42:35.722Z,4.22
2022-12-08T13:48:27.879Z,5.75
2022-12-08T13:57:11.534Z,5.57
2022-12-08T13:59:43.760Z,6.03
2022-12-08T14:02:30.105Z,7.38
2022-12-08T14:07:46.516Z,6.70
2022-12-08T14:10:23.372Z,6.18
2022-12-08T14:12:56.976Z,6.68
2022-12-08T14:15:25.522Z,6.30
2022-12-08T14:17:54.747Z,6.28
2022-12-08T14:20:28.363Z,4.70
2022-12-08T14:22:55.772Z,6.30
2022-12-08T14:25:23.599Z,6.13
2022-12-08T14:27:56.347Z,5.32
2022-12-08T14:30:31.179Z,4.70
2022-12-08T14:33:00.956Z,5.75
2022-12-08T14:35:36.734Z,5.65
2022-12-08T14:38:13.974Z,4.95
2022-12-08T14:40:59.600Z,4.25
2022-12-08T14:43:28.111Z,4.93
2022-12-08T14:46:01.579Z,4.13
2022-12-08T14:48:31.458Z,6.60
2022-12-08T14:51:05.252Z,4.03
2022-12-08T14:53:40.026Z,5.20
2022-12-08T14:56:23.627Z,5.00
2022-12-08T14:59:03.190Z,3.80
2022-12-08T15:01:30.610Z,5.38
2022-12-08T15:04:14.528Z,3.97
2022-12-08T15:06:51.863Z,7.55
2022-12-08T15:09:29.898Z,5.35
2022-12-08T15:12:14.754Z,4.82
2022-12-08T15:14:53.805Z,4.70
2022-12-08T15:17:47.945Z,5.30
2022-12-08T15:20:35.049Z,4.82
2022-12-08T15:23:02.821Z,6.28
2022-12-08T15:25:29.842Z,4.72
2022-12-08T15:27:57.931Z,5.50
2022-12-08T15:30:26.498Z,6.05
2022-12-08T15:32:55.945Z,5.25
2022-12-08T15:35:22.807Z,5.22
2022-12-08T15:37:49.560Z,6.90
2022-12-08T15:40:19.782Z,8.10
2022-12-08T15:42:47.162Z,7.97
2022-12-08T15:45:14.831Z,4.78
2022-12-08T15:47:43.643Z,4.13
2022-12-08T15:50:21.657Z,5.72
2022-12-08T15:52:50.893Z,3.38
2022-12-08T15:55:20.167Z,6.45
2022-12-08T15:58:51.244Z,7.93
2022-12-08T16:00:55.031Z,5.65
2022-12-08T16:09:36.317Z,4.25
2022-12-08T16:12:21.758Z,5.70
2022-12-08T16:17:36.540Z,4.75
2022-12-08T16:20:10.898Z,5.38
2022-12-08T16:22:54.460Z,4.22
2022-12-08T16:25:24.880Z,6.30
2022-12-08T16:28:03.143Z,5.40
2022-12-08T16:30:35.913Z,7.70
2022-12-08T16:33:02.676Z,5.35
2022-12-08T16:35:29.953Z,4.05
2022-12-08T16:37:57.231Z,4.70
2022-12-08T16:40:24.202Z,3.92
2022-12-08T16:42:51.147Z,4.75
2022-12-08T16:45:30.130Z,3.95
2022-12-08T16:48:01.240Z,4.75
2022-12-08T16:50:34.818Z,5.35
2022-12-08T16:53:03.248Z,5.30
2022-12-08T16:55:30.424Z,6.53
2022-12-08T16:57:57.923Z,7.57
2022-12-08T17:00:27.810Z,5.63
2022-12-08T17:02:55.817Z,6.35
2022-12-08T17:05:24.898Z,5.50
2022-12-08T17:07:53.797Z,6.63
2022-12-08T17:10:23.643Z,6.32
2022-12-08T17:12:51.157Z,6.95
2022-12-08T17:15:21.074Z,7.97
2022-12-08T17:17:48.718Z,7.63
2022-12-08T17:20:18.406Z,9.93
2022-12-08T17:22:45.782Z,6.32
2022-12-08T17:25:12.717Z,6.03
2022-12-08T17:27:40.411Z,10.73
2022-12-08T17:30:09.413Z,14.20
2022-12-08T17:32:38.108Z,15.88
2022-12-08T17:35:05.995Z,8.65
2022-12-08T17:37:33.461Z,10.07
2022-12-08T17:40:00.423Z,11.07
2022-12-08T17:42:27.461Z,21.25
2022-12-08T17:44:54.933Z,19.60
2022-12-08T17:47:22.352Z,12.80
2022-12-08T17:49:49.343Z,8.57
2022-12-08T17:52:16.122Z,11.05
2022-12-08T17:54:43.056Z,11.40
2022-12-08T17:57:09.882Z,14.25
2022-12-08T17:59:36.772Z,10.30
2022-12-08T18:02:04.399Z,10.10
2022-12-08T18:04:31.460Z,10.75
2022-12-08T18:07:00.767Z,9.23
2022-12-08T18:09:30.862Z,8.75
2022-12-08T18:11:57.772Z,10.27
2022-12-08T18:14:24.573Z,11.73
2022-12-08T18:16:51.453Z,14.02
2022-12-08T18:19:18.522Z,17.85
2022-12-08T18:21:45.460Z,12.57
2022-12-08T18:24:19.031Z,11.77
2022-12-08T18:26:46.674Z,9.55
2022-12-08T18:29:13.829Z,10.70
2022-12-08T18:31:40.715Z,11.43
2022-12-08T18:34:07.508Z,11.10
2022-12-08T18:36:34.613Z,12.63
2022-12-08T18:39:05.754Z,10.93
2022-12-08T18:41:35.784Z,12.82
2022-12-08T18:44:02.618Z,12.38
2022-12-08T18:46:29.505Z,11.43
2022-12-08T18:48:56.526Z,14.07
2022-12-08T18:51:24.691Z,16.98
2022-12-08T18:53:52.057Z,12.40
2022-12-08T18:56:37.176Z,15.65
2022-12-08T18:59:10.198Z,18.58
2022-12-08T19:01:38.799Z,12.30
2022-12-08T19:06:54.510Z,15.27
2022-12-08T19:09:22.408Z,21.58
2022-12-08T19:11:49.269Z,19.13
2022-12-08T19:14:16.367Z,17.52
2022-12-08T19:16:43.289Z,21.95
2022-12-08T19:19:10.098Z,21.17
2022-12-08T19:21:41.541Z,19.67
2022-12-08T19:24:11.894Z,19.77
2022-12-08T19:26:39.344Z,22.48
2022-12-08T19:29:06.265Z,22.90
2022-12-08T19:31:33.101Z,19.38
2022-12-08T19:34:00.142Z,20.65
2022-12-08T19:36:27.736Z,21.48
2022-12-08T19:39:13.175Z,20.20
2022-12-08T19:41:58.770Z,21.35
2022-12-08T19:44:46.473Z,23.83
2022-12-08T19:47:13.881Z,22.15
2022-12-08T19:49:47.513Z,27.42
2022-12-08T19:52:14.418Z,26.55
2022-12-08T19:54:41.257Z,24.13
2022-12-08T19:57:08.275Z,24.02
2022-12-08T19:59:34.992Z,22.90
2022-12-08T20:02:01.876Z,28.25
2022-12-08T20:04:28.838Z,27.67
2022-12-08T20:06:56.510Z,25.73
2022-12-08T20:09:23.937Z,24.52
2022-12-08T20:11:54.399Z,25.52
2022-12-08T20:14:22.786Z,25.80
2022-12-08T20:16:50.737Z,25.02
2022-12-08T20:19:18.063Z,26.50
2022-12-08T20:21:44.899Z,26.30
2022-12-08T20:24:11.830Z,25.67
2022-12-08T20:26:38.675Z,27.02
2022-12-08T20:29:05.533Z,27.38
2022-12-08T20:31:33.314Z,25.77
2022-12-08T20:34:00.733Z,26.77
2022-12-08T20:36:28.191Z,30.25
2022-12-08T20:38:55.619Z,28.42
2022-12-08T20:41:23.567Z,26.00
2022-12-08T20:43:51.567Z,29.20
2022-12-08T20:46:19.896Z,30.20
2022-12-08T20:48:46.928Z,28.58
2022-12-08T20:51:18.997Z,28.42
2022-12-08T20:53:46.761Z,29.40
2022-12-08T20:56:18.587Z,33.40
2022-12-08T20:58:45.547Z,30.42
2022-12-08T21:01:14.952Z,33.53
2022-12-08T21:03:42.805Z,31.80
2022-12-08T21:06:09.948Z,32.05
2022-12-08T21:08:37.684Z,33.13
2022-12-08T21:11:06.000Z,32.97
2022-12-08T21:13:32.988Z,34.60
2022-12-08T21:16:00.238Z,33.72
2022-12-08T21:18:27.677Z,37.25
2022-12-08T21:21:06.196Z,37.25
2022-12-08T21:23:34.519Z,35.80
2022-12-08T21:26:01.657Z,34.85
2022-12-08T21:28:28.885Z,34.22
2022-12-08T21:30:56.008Z,37.30
2022-12-08T21:33:23.249Z,38.40
2022-12-08T21:35:50.812Z,37.47
2022-12-08T21:38:17.811Z,32.03
2022-12-08T21:40:44.879Z,34.15
2022-12-08T21:43:13.709Z,36.90
2022-12-08T21:45:41.476Z,35.42
2022-12-08T21:48:11.710Z,34.67
2022-12-08T21:50:39.377Z,32.80
2022-12-08T21:53:06.463Z,34.05
2022-12-08T21:55:33.477Z,33.30
2022-12-08T21:58:02.157Z,32.70
2022-12-08T22:00:29.221Z,35.92
2022-12-08T22:02:56.428Z,37.90
2022-12-08T22:05:24.144Z,36.20
2022-12-08T22:07:51.412Z,36.17
2022-12-08T22:10:18.777Z,38.17
2022-12-08T22:12:45.683Z,38.05
2022-12-08T22:15:13.064Z,36.33
2022-12-08T22:17:42.281Z,41.58
2022-12-08T22:20:14.592Z,40.55
2022-12-08T22:22:42.240Z,37.70
2022-12-08T22:25:13.147Z,44.15
2022-12-08T22:27:40.715Z,42.97
2022-12-08T22:30:09.223Z,42.45
2022-12-08T22:32:37.072Z,43.90
2022-12-08T22:35:04.155Z,47.13
2022-12-08T22:37:31.097Z,46.35
2022-12-08T22:39:58.111Z,51.50
2022-12-08T22:42:25.023Z,49.97
2022-12-08T22:44:51.789Z,52.25
2022-12-08T22:47:18.600Z,52.60
2022-12-08T22:49:45.339Z,52.05
2022-12-08T22:52:12.145Z,50.08
2022-12-08T22:54:39.093Z,53.42
2022-12-08T22:57:06.135Z,52.65
2022-12-08T22:59:33.764Z,51.80
2022-12-08T23:02:00.723Z,55.92
2022-12-08T23:04:27.637Z,48.80
2022-12-08T23:06:54.570Z,52.00
2022-12-08T23:09:21.548Z,52.50
2022-12-08T23:11:48.462Z,53.95
2022-12-08T23:14:16.041Z,51.17
2022-12-08T23:16:43.280Z,46.97
2022-12-08T23:19:10.331Z,51.13
2022-12-08T23:21:37.326Z,50.10
2022-12-08T23:24:04.376Z,40.65
2022-12-08T23:26:33.432Z,42.13
2022-12-08T23:29:00.788Z,46.80
2022-12-08T23:31:27.713Z,47.08
2022-12-08T23:33:55.175Z,38.35
2022-12-08T23:36:25.925Z,37.75
2022-12-08T23:38:53.875Z,33.13
2022-12-08T23:41:21.198Z,34.03
2022-12-08T23:43:50.723Z,38.47
2022-12-08T23:46:20.396Z,37.30
2022-12-08T23:48:48.032Z,34.00
2022-12-08T23:51:15.097Z,37.22
2022-12-08T23:53:42.726Z,42.83
2022-12-08T23:56:12.963Z,40.50
2022-12-08T23:58:40.625Z,44.67
